Time;durP1;ratioP1;P1;durP2;ratioP2;P2;SDS_P1;SDS_P2;PMS_P1;PMS_P2;Temp;Humidity;BMP_temperature;BMP_pressure;BME280_temperature;BME280_humidity;BME280_pressure;Samples;Min_cycle;Max_cycle;Signal;HPM_P1;HPM_P2
2022/05/24 00:02:07;;;;;;;5.05;3.50;;;19.00;39.40;;;;;;6216335;23;20568;-85
2022/05/24 00:04:33;;;;;;;3.90;3.13;;;18.90;39.40;;;;;;6192403;23;20200;-85
2022/05/24 00:06:59;;;;;;;4.15;3.63;;;19.00;39.40;;;;;;6216364;23;20165;-85
2022/05/24 00:09:25;;;;;;;5.43;3.63;;;19.00;39.40;;;;;;6191526;23;20469;-86
2022/05/24 00:11:51;;;;;;;4.07;3.45;;;19.00;39.60;;;;;;6167182;23;20208;-85
2022/05/24 00:15:19;;;;;;;4.10;3.50;;;18.90;39.40;;;;;;6191656;23;20244;-85
2022/05/24 00:17:07;;;;;;;4.18;3.40;;;18.90;39.40;;;;;;6195766;23;20182;-85
2022/05/24 00:19:33;;;;;;;4.13;3.30;;;18.90;39.40;;;;;;6216837;23;20134;-85
2022/05/24 00:22:01;;;;;;;5.30;3.88;;;18.90;39.40;;;;;;6191623;23;20161;-85
2022/05/24 00:24:27;;;;;;;5.38;3.67;;;18.90;39.40;;;;;;6216447;23;20209;-85
2022/05/24 00:26:53;;;;;;;4.28;3.55;;;18.90;39.60;;;;;;6191764;23;20131;-85
2022/05/24 00:29:18;;;;;;;3.95;3.55;;;18.90;39.60;;;;;;6216608;23;20130;-85
2022/05/24 00:31:44;;;;;;;6.43;3.33;;;18.90;39.60;;;;;;6191786;23;20200;-85
2022/05/24 00:34:10;;;;;;;4.80;3.60;;;18.90;39.60;;;;;;6191386;23;20141;-86
2022/05/24 00:36:35;;;;;;;4.25;3.47;;;18.90;39.60;;;;;;6190932;23;20200;-85
2022/05/24 00:39:01;;;;;;;3.40;3.10;;;18.80;39.40;;;;;;6191093;23;20178;-86
2022/05/24 00:41:32;;;;;;;4.28;3.67;;;18.90;39.60;;;;;;6166082;23;20146;-85
2022/05/24 00:44:17;;;;;;;5.07;3.60;;;18.90;39.60;;;;;;6191916;23;20150;-85
2022/05/24 00:46:47;;;;;;;4.53;3.67;;;18.90;39.80;;;;;;6216571;23;20562;-85
2022/05/24 00:49:16;;;;;;;4.50;3.55;;;18.90;39.70;;;;;;6167502;23;20138;-86
2022/05/24 00:51:47;;;;;;;4.32;3.42;;;18.90;39.60;;;;;;6191596;23;20568;-85
2022/05/24 00:54:13;;;;;;;4.15;3.30;;;18.90;39.60;;;;;;6167667;23;20146;-85
2022/05/24 00:57:10;;;;;;;5.30;3.70;;;18.90;39.70;;;;;;6191348;23;20462;-85
2022/05/24 00:59:45;;;;;;;4.95;3.70;;;18.90;39.80;;;;;;6195837;23;20150;-85
2022/05/24 01:02:10;;;;;;;3.63;3.28;;;18.90;39.80;;;;;;6216068;23;20142;-85
2022/05/24 01:04:38;;;;;;;5.32;3.42;;;18.80;39.80;;;;;;6166500;23;20162;-85
2022/05/24 01:07:04;;;;;;;4.45;3.70;;;18.80;39.90;;;;;;6191577;23;20142;-85
2022/05/24 01:09:47;;;;;;;4.78;3.53;;;18.80;39.90;;;;;;6191404;23;20562;-85
2022/05/24 01:12:16;;;;;;;3.80;3.40;;;18.80;39.80;;;;;;6167213;23;20144;-85
2022/05/24 01:14:42;;;;;;;3.45;3.15;;;18.80;40.00;;;;;;6191464;23;20657;-85
2022/05/24 01:17:07;;;;;;;4.90;3.58;;;18.80;40.00;;;;;;6190842;23;20169;-85
2022/05/24 01:19:40;;;;;;;5.05;3.65;;;18.80;40.00;;;;;;6190733;23;20134;-85
2022/05/24 01:22:39;;;;;;;4.05;3.20;;;18.80;40.00;;;;;;6216103;23;20127;-86
2022/05/24 01:25:29;;;;;;;4.55;3.58;;;18.80;40.10;;;;;;6216474;23;20203;-85
2022/05/24 01:27:55;;;;;;;5.15;3.30;;;18.80;40.10;;;;;;6217326;23;20134;-85
2022/05/24 01:30:25;;;;;;;4.80;3.65;;;18.80;40.10;;;;;;6165860;23;20145;-85
2022/05/24 01:38:18;;;;;;;5.28;3.50;;;18.80;40.20;;;;;;6215715;23;20630;-85
2022/05/24 01:40:45;;;;;;;3.80;3.22;;;18.80;40.10;;;;;;6166392;23;20220;-85
2022/05/24 01:43:11;;;;;;;4.18;3.40;;;18.80;40.10;;;;;;6190879;23;20192;-85
2022/05/24 01:45:40;;;;;;;4.72;3.60;;;18.80;40.10;;;;;;6191065;23;20557;-85
2022/05/24 01:48:15;;;;;;;4.47;3.63;;;18.80;40.10;;;;;;6166276;23;20178;-86
2022/05/24 01:50:42;;;;;;;4.00;3.30;;;18.80;40.30;;;;;;6191007;23;20224;-86
2022/05/24 01:53:13;;;;;;;5.00;3.58;;;18.70;40.30;;;;;;6190987;23;20138;-86
2022/05/24 01:55:40;;;;;;;4.72;3.40;;;18.80;40.20;;;;;;6215879;23;20126;-86
2022/05/24 01:58:10;;;;;;;4.72;3.55;;;18.70;40.20;;;;;;6166460;23;20178;-86
2022/05/24 02:00:44;;;;;;;4.60;3.38;;;18.70;40.40;;;;;;6166228;23;20157;-86
2022/05/24 02:03:09;;;;;;;4.40;3.70;;;18.80;40.40;;;;;;6215472;23;20212;-86
2022/05/24 02:05:37;;;;;;;5.80;3.40;;;18.80;40.30;;;;;;6215564;23;20510;-86
2022/05/24 02:08:03;;;;;;;4.45;3.78;;;18.80;40.40;;;;;;6191703;23;20150;-86
2022/05/24 02:10:34;;;;;;;4.68;3.63;;;18.80;40.40;;;;;;6165748;23;20143;-86
2022/05/24 02:13:00;;;;;;;3.88;3.45;;;18.80;40.40;;;;;;6165818;23;20154;-86
2022/05/24 02:15:27;;;;;;;4.00;3.60;;;18.80;40.50;;;;;;6191256;23;20134;-86
2022/05/24 02:18:08;;;;;;;4.13;3.47;;;18.80;40.50;;;;;;6190611;23;20173;-86
2022/05/24 02:20:36;;;;;;;5.97;3.88;;;18.80;40.50;;;;;;6165981;23;20224;-85
2022/05/24 02:23:05;;;;;;;4.25;3.35;;;18.70;40.40;;;;;;6191567;23;20134;-86
2022/05/24 02:25:40;;;;;;;4.53;3.60;;;18.70;40.40;;;;;;6215255;23;20130;-85
2022/05/24 02:28:09;;;;;;;3.40;3.10;;;18.80;40.50;;;;;;6191089;23;20569;-85
2022/05/24 02:30:36;;;;;;;4.45;3.63;;;18.80;40.50;;;;;;6190671;23;20167;-86
2022/05/24 02:33:02;;;;;;;3.70;3.17;;;18.70;40.50;;;;;;6191541;23;20233;-86
2022/05/24 02:35:29;;;;;;;3.78;3.10;;;18.80;40.50;;;;;;6190783;23;20213;-86
2022/05/24 02:37:57;;;;;;;3.90;3.17;;;18.70;40.50;;;;;;6190098;23;20189;-86
2022/05/24 02:43:09;;;;;;;4.03;3.38;;;18.70;41.30;;;;;;6215292;23;20141;-86
2022/05/24 02:45:34;;;;;;;3.70;3.28;;;18.70;40.60;;;;;;6165403;23;20142;-87
2022/05/24 02:48:01;;;;;;;5.05;3.40;;;18.70;40.50;;;;;;6166327;23;20149;-85
2022/05/24 02:50:27;;;;;;;5.15;3.55;;;18.70;40.70;;;;;;6189772;23;20137;-86
2022/05/24 02:52:54;;;;;;;5.22;3.28;;;18.70;40.70;;;;;;6165037;23;20161;-86
2022/05/24 02:55:20;;;;;;;4.28;3.42;;;18.70;40.60;;;;;;6189527;23;20141;-86
2022/05/24 02:57:46;;;;;;;4.70;3.65;;;18.70;40.70;;;;;;6214982;23;20243;-86
2022/05/24 03:00:18;;;;;;;6.45;3.35;;;18.70;40.70;;;;;;6189605;23;20135;-86
2022/05/24 03:02:43;;;;;;;4.63;2.97;;;18.70;40.70;;;;;;6189753;23;20213;-86
2022/05/24 03:05:10;;;;;;;3.85;3.17;;;18.70;40.80;;;;;;6165528;23;20186;-86
2022/05/24 03:10:20;;;;;;;3.42;3.10;;;18.70;40.80;;;;;;6214510;23;20138;-86
2022/05/24 03:15:31;;;;;;;4.50;3.78;;;18.70;40.80;;;;;;6193335;23;20143;-86
2022/05/24 03:17:56;;;;;;;4.03;3.40;;;18.70;40.80;;;;;;6189239;23;20179;-86
2022/05/24 03:20:22;;;;;;;4.35;3.63;;;18.70;40.90;;;;;;6214278;23;20139;-86
2022/05/24 03:22:48;;;;;;;3.85;3.40;;;18.70;41.00;;;;;;6189387;23;20213;-86
2022/05/24 03:25:13;;;;;;;4.55;3.38;;;18.70;40.90;;;;;;6164338;23;20146;-86
2022/05/24 03:27:40;;;;;;;3.70;3.20;;;18.70;41.00;;;;;;6214752;23;20157;-86
2022/05/24 03:30:07;;;;;;;4.38;3.80;;;18.70;41.00;;;;;;6214283;23;20131;-86
2022/05/24 03:32:33;;;;;;;4.57;3.40;;;18.70;40.90;;;;;;6216234;23;20200;-86
2022/05/24 03:35:04;;;;;;;4.05;3.25;;;18.80;40.80;;;;;;6216156;23;20134;-86
2022/05/24 03:37:29;;;;;;;3.45;3.03;;;18.80;40.90;;;;;;6166183;23;20189;-86
2022/05/24 03:39:55;;;;;;;4.15;3.28;;;18.80;40.90;;;;;;6215679;23;20145;-86
2022/05/24 03:42:21;;;;;;;7.60;3.72;;;18.80;40.80;;;;;;6191046;23;20226;-86
2022/05/24 03:44:48;;;;;;;4.63;3.53;;;18.70;40.80;;;;;;6165850;23;20146;-86
2022/05/24 03:47:13;;;;;;;3.72;3.10;;;18.80;40.90;;;;;;6216802;23;20150;-86
2022/05/24 03:49:41;;;;;;;3.40;3.08;;;18.80;40.80;;;;;;6215861;23;20485;-86
2022/05/24 03:52:07;;;;;;;3.50;3.10;;;18.80;40.90;;;;;;6215809;23;20150;-86
2022/05/24 03:54:32;;;;;;;3.60;3.25;;;18.80;40.80;;;;;;6190934;23;20134;-86
2022/05/24 03:59:43;;;;;;;3.78;3.17;;;18.80;40.90;;;;;;6216016;23;20140;-86
2022/05/24 04:02:09;;;;;;;4.53;3.50;;;18.80;40.80;;;;;;6191301;23;20173;-86
2022/05/24 04:04:35;;;;;;;5.45;3.50;;;18.80;40.80;;;;;;6191719;23;20611;-86
2022/05/24 04:07:00;;;;;;;3.85;3.45;;;18.80;40.80;;;;;;6165746;23;20578;-86
2022/05/24 04:09:28;;;;;;;3.92;3.30;;;18.90;40.80;;;;;;6215565;23;20130;-86
2022/05/24 04:11:54;;;;;;;4.38;3.00;;;18.90;40.80;;;;;;6190979;23;20130;-86
2022/05/24 04:14:20;;;;;;;3.75;3.38;;;18.90;40.80;;;;;;6215628;23;20130;-86
2022/05/24 04:16:46;;;;;;;4.75;3.22;;;18.90;40.90;;;;;;6165670;23;20165;-86
2022/05/24 04:19:12;;;;;;;3.70;3.35;;;18.80;40.80;;;;;;6190574;23;20201;-86
2022/05/24 04:21:37;;;;;;;3.80;3.33;;;18.90;40.80;;;;;;6216470;23;20134;-86
2022/05/24 04:24:03;;;;;;;4.82;3.33;;;18.90;40.80;;;;;;6215783;23;20133;-86
2022/05/24 04:26:29;;;;;;;5.88;3.47;;;18.90;40.80;;;;;;6216965;23;20126;-86
2022/05/24 04:28:54;;;;;;;4.68;3.40;;;18.90;40.90;;;;;;6215779;23;20170;-86
2022/05/24 04:31:20;;;;;;;3.40;3.10;;;18.90;40.90;;;;;;6190465;23;20141;-86
2022/05/24 04:33:47;;;;;;;4.75;3.30;;;18.90;41.00;;;;;;6215546;23;20153;-86
2022/05/24 04:36:12;;;;;;;3.75;3.20;;;18.90;40.80;;;;;;6167925;23;20173;-86
2022/05/24 04:38:39;;;;;;;3.45;3.05;;;18.90;40.80;;;;;;6195897;23;20185;-86
2022/05/24 04:43:45;;;;;;;3.20;2.90;;;19.00;40.80;;;;;;6202594;23;20169;-86
2022/05/24 04:46:12;;;;;;;3.78;3.25;;;19.00;40.80;;;;;;6247369;23;20188;-86
2022/05/24 04:48:39;;;;;;;4.07;3.40;;;19.00;40.70;;;;;;6195632;23;20236;-86
2022/05/24 04:51:05;;;;;;;3.83;3.40;;;19.10;40.80;;;;;;6196304;23;20152;-86
2022/05/24 04:53:32;;;;;;;3.78;3.30;;;19.00;40.80;;;;;;6168907;23;20173;-85
2022/05/24 04:55:58;;;;;;;3.88;3.13;;;19.00;40.90;;;;;;6170339;23;20160;-86
2022/05/24 04:58:24;;;;;;;3.38;3.08;;;19.00;40.90;;;;;;6220126;23;20609;-86
2022/05/24 05:00:50;;;;;;;3.45;3.10;;;19.00;40.90;;;;;;6220531;23;20137;-86
2022/05/24 05:03:17;;;;;;;3.97;3.03;;;19.00;41.00;;;;;;6170118;23;20169;-86
2022/05/24 05:05:43;;;;;;;3.92;3.30;;;19.00;41.20;;;;;;6170554;23;20141;-86
2022/05/24 05:08:09;;;;;;;3.38;3.08;;;19.00;41.00;;;;;;6220381;23;20621;-86
2022/05/24 05:10:37;;;;;;;4.35;3.20;;;19.00;41.10;;;;;;6171068;23;20176;-86
2022/05/24 05:13:03;;;;;;;3.75;3.03;;;19.00;41.00;;;;;;6170189;23;20141;-86
2022/05/24 05:15:29;;;;;;;3.75;3.00;;;19.00;41.00;;;;;;6170702;23;20195;-86
2022/05/24 05:18:04;;;;;;;4.38;3.35;;;19.10;41.00;;;;;;6195081;23;20205;-86
2022/05/24 05:20:33;;;;;;;3.22;2.92;;;19.10;41.00;;;;;;6195188;23;20211;-86
2022/05/24 05:22:58;;;;;;;3.47;3.17;;;19.10;41.00;;;;;;6195582;23;20224;-86
2022/05/24 05:25:24;;;;;;;3.78;3.05;;;19.00;41.00;;;;;;6195607;23;20165;-86
2022/05/24 05:27:49;;;;;;;3.25;2.95;;;19.10;41.20;;;;;;6195310;23;20634;-86
2022/05/24 05:32:57;;;;;;;3.90;3.13;;;19.00;41.10;;;;;;6223901;23;20134;-85
2022/05/24 05:35:23;;;;;;;3.17;2.88;;;19.10;41.20;;;;;;6170217;23;20507;-85
2022/05/24 05:37:54;;;;;;;3.72;3.00;;;19.10;41.20;;;;;;6165077;23;20276;-87
2022/05/24 05:40:25;;;;;;;3.42;3.03;;;19.10;41.20;;;;;;6183897;23;20238;-87
2022/05/24 05:42:51;;;;;;;3.70;3.30;;;19.10;41.20;;;;;;6148185;23;20198;-84
2022/05/24 05:45:16;;;;;;;4.15;3.13;;;19.10;41.20;;;;;;6124141;23;20148;-86
2022/05/24 05:47:42;;;;;;;3.75;2.90;;;19.00;41.20;;;;;;6124275;23;20211;-86
2022/05/24 05:50:08;;;;;;;3.58;2.85;;;19.20;41.30;;;;;;6123970;23;20152;-86
2022/05/24 05:52:37;;;;;;;3.55;3.08;;;19.10;41.10;;;;;;6099883;23;20184;-87
2022/05/24 05:55:03;;;;;;;4.53;3.13;;;19.10;41.10;;;;;;6100478;23;20168;-84
2022/05/24 05:57:28;;;;;;;3.33;3.03;;;19.20;41.20;;;;;;6124127;23;20172;-85
2022/05/24 05:59:54;;;;;;;3.58;2.90;;;19.20;41.20;;;;;;6124498;23;20156;-85
2022/05/24 06:02:20;;;;;;;3.30;3.00;;;19.20;41.20;;;;;;6124310;23;20475;-85
2022/05/24 06:04:47;;;;;;;3.40;2.80;;;19.10;41.20;;;;;;6123950;23;20176;-85
2022/05/24 06:07:12;;;;;;;2.88;2.67;;;19.10;41.20;;;;;;6124688;23;20171;-85
2022/05/24 06:09:38;;;;;;;3.15;2.85;;;19.20;41.30;;;;;;6124742;23;20515;-85
2022/05/24 06:12:04;;;;;;;3.40;3.10;;;19.10;41.30;;;;;;6125091;23;20136;-85
2022/05/24 06:14:30;;;;;;;4.28;3.00;;;19.00;41.30;;;;;;6100487;23;20152;-85
2022/05/24 06:16:55;;;;;;;3.53;2.97;;;19.10;41.40;;;;;;6100476;23;20248;-85
2022/05/24 06:19:21;;;;;;;3.10;2.65;;;19.10;41.40;;;;;;6124820;23;20139;-86
2022/05/24 06:21:46;;;;;;;3.67;2.80;;;19.10;41.40;;;;;;6100755;23;20152;-85
2022/05/24 06:24:14;;;;;;;3.28;2.85;;;19.10;41.40;;;;;;6124972;23;20159;-85
2022/05/24 06:26:40;;;;;;;3.70;2.70;;;19.10;41.40;;;;;;6100215;23;20152;-85
2022/05/24 06:29:05;;;;;;;3.30;2.97;;;19.10;41.40;;;;;;6100213;23;20144;-85
2022/05/24 06:31:31;;;;;;;3.47;2.70;;;19.20;41.40;;;;;;6152852;23;20242;-85
2022/05/24 06:33:57;;;;;;;3.95;3.13;;;19.20;41.40;;;;;;6180435;23;20169;-86
2022/05/24 06:36:22;;;;;;;3.90;3.10;;;19.30;41.40;;;;;;6219803;23;20130;-86
2022/05/24 06:38:48;;;;;;;3.00;2.70;;;19.10;41.30;;;;;;6194770;23;20553;-85
2022/05/24 06:41:14;;;;;;;3.80;2.70;;;19.20;41.30;;;;;;6247069;23;20141;-86
2022/05/24 06:43:39;;;;;;;3.20;2.70;;;19.20;41.30;;;;;;6220435;23;20219;-85
2022/05/24 06:46:07;;;;;;;3.05;2.70;;;19.20;41.40;;;;;;6219390;23;20568;-86
2022/05/24 06:48:36;;;;;;;4.18;3.25;;;19.20;41.40;;;;;;6219220;23;20145;-86
2022/05/24 06:51:06;;;;;;;3.28;2.50;;;19.30;41.40;;;;;;6219398;23;20140;-86
2022/05/24 06:53:32;;;;;;;4.20;3.15;;;19.30;41.30;;;;;;6170832;23;20195;-86
2022/05/24 06:55:57;;;;;;;3.55;2.90;;;19.30;41.30;;;;;;6219626;23;20584;-86
2022/05/24 06:58:23;;;;;;;4.78;2.97;;;19.20;41.40;;;;;;6219393;23;20170;-86
2022/05/24 07:03:27;;;;;;;3.53;3.00;;;19.20;41.40;;;;;;6222912;23;20192;-87
2022/05/24 07:05:54;;;;;;;3.03;2.72;;;19.30;41.50;;;;;;6194526;23;20492;-87
2022/05/24 07:08:20;;;;;;;3.53;3.00;;;19.20;41.50;;;;;;6222087;23;20149;-87
2022/05/24 07:10:46;;;;;;;3.58;3.10;;;19.20;41.40;;;;;;6196452;23;20579;-87
2022/05/24 07:13:17;;;;;;;3.10;2.80;;;19.30;41.40;;;;;;6172621;23;20142;-86
2022/05/24 07:15:42;;;;;;;5.15;3.05;;;19.30;41.50;;;;;;6198255;23;20130;-87
2022/05/24 07:18:08;;;;;;;3.05;2.67;;;19.30;41.40;;;;;;6197751;23;20176;-86
2022/05/24 07:20:36;;;;;;;3.10;2.80;;;19.30;41.40;;;;;;6199650;23;20138;-87
2022/05/24 07:26:20;;;;;;;3.17;2.80;;;19.30;41.30;;;;;;6251462;23;20154;-87
2022/05/24 07:28:46;;;;;;;3.90;2.80;;;19.30;41.40;;;;;;6173717;23;20148;-86
2022/05/24 07:31:12;;;;;;;3.00;2.70;;;19.30;41.50;;;;;;6171821;23;20224;-86
2022/05/24 07:33:37;;;;;;;3.28;2.97;;;19.20;41.50;;;;;;6172177;23;20607;-87
2022/05/24 07:36:05;;;;;;;2.90;2.65;;;19.20;41.50;;;;;;6196998;23;20148;-86
2022/05/24 07:38:31;;;;;;;3.35;2.97;;;19.30;41.50;;;;;;6137346;23;20205;-86
2022/05/24 07:46:27;;;;;;;3.60;2.88;;;19.30;41.40;;;;;;6187310;23;20143;-86
2022/05/24 07:48:53;;;;;;;4.63;3.25;;;19.40;41.60;;;;;;6162250;23;20134;-86
2022/05/24 07:51:20;;;;;;;3.72;2.65;;;19.30;41.50;;;;;;6161965;23;20590;-86
2022/05/24 07:53:46;;;;;;;3.15;2.85;;;19.30;41.50;;;;;;6161567;23;20181;-86
2022/05/24 07:56:20;;;;;;;3.25;2.85;;;19.30;41.50;;;;;;6137190;23;20465;-86
2022/05/24 07:58:46;;;;;;;3.40;3.00;;;19.40;41.40;;;;;;6186367;23;20216;-86
2022/05/24 08:01:14;;;;;;;3.50;2.70;;;19.40;41.40;;;;;;6185715;23;20522;-86
2022/05/24 08:03:42;;;;;;;2.70;2.50;;;19.40;41.40;;;;;;6137016;23;20143;-87
2022/05/24 08:06:20;;;;;;;3.30;2.60;;;19.40;41.50;;;;;;6186329;23;20208;-86
2022/05/24 08:08:53;;;;;;;3.00;2.70;;;19.40;41.50;;;;;;6161657;23;20138;-86
2022/05/24 08:11:19;;;;;;;4.63;2.75;;;19.40;41.60;;;;;;6188870;23;20505;-85
2022/05/24 08:13:44;;;;;;;3.38;2.75;;;19.40;41.60;;;;;;6211966;23;20147;-86
2022/05/24 08:16:13;;;;;;;2.95;2.65;;;19.40;41.50;;;;;;6161320;23;20134;-86
2022/05/24 08:18:39;;;;;;;4.60;2.60;;;19.50;41.30;;;;;;6161482;23;20561;-87
2022/05/24 08:21:05;;;;;;;3.00;2.70;;;19.50;41.20;;;;;;6136725;23;20146;-87
2022/05/24 08:23:31;;;;;;;4.25;2.80;;;19.50;41.30;;;;;;6136462;23;20135;-87
2022/05/24 08:25:56;;;;;;;5.22;2.83;;;19.50;41.40;;;;;;6136632;23;20563;-86
2022/05/24 08:28:23;;;;;;;5.80;2.70;;;19.50;41.40;;;;;;6161375;23;20139;-86
2022/05/24 08:30:50;;;;;;;5.80;2.72;;;19.50;41.40;;;;;;6160894;23;20186;-86
2022/05/24 08:33:17;;;;;;;2.60;2.40;;;19.50;41.30;;;;;;6162039;23;20147;-86
2022/05/24 08:35:44;;;;;;;6.25;2.80;;;19.50;41.30;;;;;;6140093;23;20147;-86
2022/05/24 08:38:09;;;;;;;2.88;2.58;;;19.40;41.50;;;;;;6189159;23;20189;-85
2022/05/24 08:40:37;;;;;;;5.03;2.60;;;19.40;41.50;;;;;;6190960;23;20213;-86
2022/05/24 08:43:32;;;;;;;3.15;2.35;;;19.30;41.40;;;;;;6191361;23;20135;-85
2022/05/24 08:48:42;;;;;;;2.78;2.35;;;19.30;41.40;;;;;;6194403;23;20138;-85
2022/05/24 08:51:22;;;;;;;3.60;2.47;;;19.40;41.40;;;;;;6167405;23;20150;-85
2022/05/24 08:53:50;;;;;;;2.80;2.50;;;19.40;41.40;;;;;;6193584;23;20157;-85
2022/05/24 08:56:32;;;;;;;3.53;2.60;;;19.30;41.40;;;;;;6191554;23;20497;-86
2022/05/24 08:59:15;;;;;;;4.55;3.00;;;19.30;41.40;;;;;;6216136;23;20173;-85
2022/05/24 09:01:46;;;;;;;3.15;2.65;;;19.30;41.30;;;;;;6217489;23;20138;-85
2022/05/24 09:04:12;;;;;;;3.28;2.92;;;19.40;41.30;;;;;;6217030;23;20185;-86
2022/05/24 09:06:53;;;;;;;4.45;2.72;;;19.40;41.20;;;;;;6191640;23;20142;-86
2022/05/24 09:09:36;;;;;;;3.80;2.83;;;19.40;41.10;;;;;;6217116;23;20154;-86
2022/05/24 09:12:13;;;;;;;3.95;2.40;;;19.40;41.10;;;;;;6190527;23;20150;-86
2022/05/24 09:14:51;;;;;;;3.35;2.35;;;19.30;41.40;;;;;;6191828;23;20220;-86
2022/05/24 09:17:42;;;;;;;3.42;2.92;;;19.30;41.10;;;;;;6168026;23;20570;-85
2022/05/24 09:20:13;;;;;;;2.75;2.53;;;19.40;41.10;;;;;;6216302;23;20126;-85
2022/05/24 09:22:38;;;;;;;3.33;2.70;;;19.40;40.90;;;;;;6198825;23;20221;-86
2022/05/24 09:25:05;;;;;;;5.78;2.40;;;19.40;41.10;;;;;;6195534;23;20137;-86
2022/05/24 09:27:49;;;;;;;3.22;2.50;;;19.40;40.90;;;;;;6223068;23;20141;-85
2022/05/24 09:30:38;;;;;;;2.63;2.42;;;19.40;40.90;;;;;;6200139;23;20133;-85
2022/05/24 09:33:24;;;;;;;4.22;2.65;;;19.40;40.80;;;;;;6204625;23;20455;-84
2022/05/24 09:35:57;;;;;;;2.80;2.40;;;19.30;40.60;;;;;;6200559;23;20554;-85
2022/05/24 09:38:27;;;;;;;2.83;2.58;;;19.40;40.80;;;;;;6202043;23;20181;-85
2022/05/24 09:40:56;;;;;;;2.90;2.60;;;19.40;40.80;;;;;;6197966;23;20153;-85
2022/05/24 09:43:27;;;;;;;3.33;2.90;;;19.50;40.80;;;;;;6168589;23;20146;-85
2022/05/24 09:45:56;;;;;;;2.60;2.40;;;19.30;40.90;;;;;;6167980;23;20172;-85
2022/05/24 09:48:25;;;;;;;3.95;2.83;;;19.30;40.70;;;;;;6168184;23;20150;-84
2022/05/24 09:50:52;;;;;;;3.08;2.72;;;19.30;40.90;;;;;;6191591;23;20147;-85
2022/05/24 09:53:22;;;;;;;3.25;2.80;;;19.30;40.90;;;;;;6167848;23;20578;-85
2022/05/24 09:55:50;;;;;;;3.75;2.50;;;19.40;40.80;;;;;;6168167;23;20166;-85
2022/05/24 09:58:35;;;;;;;3.50;2.95;;;19.40;40.80;;;;;;6170088;23;20180;-85
2022/05/24 10:01:07;;;;;;;3.58;2.30;;;19.30;40.70;;;;;;6194640;23;20134;-85
2022/05/24 10:03:39;;;;;;;2.88;2.60;;;19.40;40.50;;;;;;6192360;23;20165;-85
2022/05/24 10:06:25;;;;;;;3.08;2.35;;;19.40;40.80;;;;;;6191743;23;20465;-85
2022/05/24 10:08:56;;;;;;;4.82;2.60;;;19.40;40.60;;;;;;6170223;23;20146;-85
2022/05/24 10:11:30;;;;;;;2.67;2.35;;;19.30;40.50;;;;;;6165968;23;20146;-85
2022/05/24 10:14:09;;;;;;;2.80;2.50;;;19.40;40.50;;;;;;6167857;23;20472;-85
2022/05/24 10:16:52;;;;;;;2.45;2.25;;;19.40;40.50;;;;;;6191335;23;20126;-85
2022/05/24 10:19:30;;;;;;;3.60;2.30;;;19.40;40.50;;;;;;6193668;23;20253;-85
2022/05/24 10:22:22;;;;;;;3.35;2.38;;;19.40;40.30;;;;;;6167841;23;20148;-85
2022/05/24 10:25:13;;;;;;;2.60;2.40;;;19.40;40.10;;;;;;6193698;23;20139;-85
2022/05/24 10:28:13;;;;;;;2.40;2.13;;;19.40;40.30;;;;;;6216466;23;20142;-85
2022/05/24 10:31:08;;;;;;;2.70;2.50;;;19.40;40.20;;;;;;6216065;23;20142;-85
2022/05/24 10:39:38;;;;;;;2.47;2.28;;;19.50;39.90;;;;;;6230015;23;20483;-85
2022/05/24 10:42:13;;;;;;;4.57;2.65;;;19.40;40.10;;;;;;6199295;23;20526;-85
2022/05/24 10:44:44;;;;;;;3.10;2.47;;;19.40;40.00;;;;;;6201312;23;20159;-86
2022/05/24 10:47:31;;;;;;;2.80;2.50;;;19.50;40.00;;;;;;6174703;23;20488;-85
2022/05/24 10:50:01;;;;;;;2.70;2.40;;;19.50;39.90;;;;;;6225698;23;20129;-85
2022/05/24 10:52:54;;;;;;;4.32;2.30;;;19.50;39.90;;;;;;6199106;23;20196;-85
2022/05/24 10:55:24;;;;;;;2.50;2.30;;;19.50;39.70;;;;;;6174618;23;20141;-85
2022/05/24 10:57:55;;;;;;;3.53;2.38;;;19.50;40.00;;;;;;6199053;23;20597;-85
2022/05/24 11:00:23;;;;;;;2.95;2.55;;;19.50;40.00;;;;;;6221540;23;20134;-85
2022/05/24 11:03:07;;;;;;;2.65;2.33;;;19.50;40.00;;;;;;6172029;23;20146;-84
2022/05/24 11:05:44;;;;;;;2.92;2.63;;;19.50;40.00;;;;;;6221775;23;20133;-84
2022/05/24 11:08:39;;;;;;;2.53;2.33;;;19.50;40.00;;;;;;6173775;23;20167;-84
2022/05/24 11:11:22;;;;;;;2.72;2.47;;;19.40;40.10;;;;;;6197455;23;20149;-85
2022/05/24 11:13:52;;;;;;;3.20;2.50;;;19.50;40.10;;;;;;6200936;23;20151;-84
2022/05/24 11:16:21;;;;;;;3.17;2.60;;;19.50;40.10;;;;;;6172908;23;20149;-85
2022/05/24 11:18:46;;;;;;;2.92;2.63;;;19.50;40.10;;;;;;6171801;23;20231;-85
2022/05/24 11:21:19;;;;;;;3.47;2.45;;;19.50;40.10;;;;;;6196719;23;20145;-85
2022/05/24 11:23:50;;;;;;;3.28;2.40;;;19.60;40.10;;;;;;6197271;23;20141;-85
2022/05/24 11:26:24;;;;;;;3.35;2.47;;;19.50;40.20;;;;;;6172896;23;20515;-85
2022/05/24 11:28:53;;;;;;;2.72;2.53;;;19.50;40.30;;;;;;6173868;23;20232;-84
2022/05/24 11:31:38;;;;;;;2.55;2.25;;;19.40;40.30;;;;;;6222416;23;20157;-84
2022/05/24 11:34:21;;;;;;;2.80;2.33;;;19.40;40.40;;;;;;6172375;23;20148;-84
2022/05/24 11:37:02;;;;;;;2.63;2.42;;;19.50;40.50;;;;;;6172599;23;20247;-85
2022/05/24 11:39:38;;;;;;;3.15;2.78;;;19.50;40.70;;;;;;6161606;23;20269;-84
2022/05/24 11:42:41;;;;;;;2.85;2.55;;;19.40;40.80;;;;;;6163139;23;20145;-84
2022/05/24 11:45:42;;;;;;;2.60;2.40;;;19.50;41.20;;;;;;6161757;23;20154;-84
2022/05/24 11:48:18;;;;;;;2.53;2.33;;;19.40;41.20;;;;;;6165675;23;20505;-85
2022/05/24 11:50:46;;;;;;;2.50;2.30;;;19.40;41.40;;;;;;6160492;23;20645;-83
2022/05/24 11:53:34;;;;;;;2.70;2.47;;;19.40;41.50;;;;;;6160864;23;20147;-85
2022/05/24 11:56:18;;;;;;;3.25;2.40;;;19.50;41.80;;;;;;6161267;23;20194;-84
2022/05/24 11:58:46;;;;;;;3.22;2.50;;;19.50;41.60;;;;;;6136786;23;20625;-84
2022/05/24 12:01:33;;;;;;;2.85;2.53;;;19.50;41.60;;;;;;6161275;23;20139;-84
2022/05/24 12:10:24;;;;;;;2.58;2.33;;;19.70;41.30;;;;;;6214855;23;20164;-83
2022/05/24 12:13:12;;;;;;;2.38;2.17;;;19.70;41.40;;;;;;6175015;23;20232;-85
2022/05/24 12:15:48;;;;;;;2.45;2.25;;;19.70;41.60;;;;;;6174902;23;20525;-85
2022/05/24 12:18:17;;;;;;;3.00;2.70;;;19.70;41.90;;;;;;6195857;23;20268;-85
2022/05/24 12:21:00;;;;;;;3.38;2.58;;;19.70;41.70;;;;;;6172494;23;20141;-84
2022/05/24 12:23:34;;;;;;;2.80;2.60;;;19.70;41.60;;;;;;6250641;23;20130;-85
2022/05/24 12:26:12;;;;;;;2.55;2.35;;;19.70;41.60;;;;;;6172925;23;20147;-85
2022/05/24 12:28:55;;;;;;;2.70;2.50;;;19.70;41.70;;;;;;6222952;23;20129;-85
2022/05/24 12:31:47;;;;;;;2.67;2.47;;;19.70;41.90;;;;;;6126293;23;20156;-85
2022/05/24 12:34:27;;;;;;;2.65;2.45;;;19.70;42.10;;;;;;6034751;23;20160;-86
2022/05/24 12:40:13;;;;;;;2.83;2.50;;;19.80;42.30;;;;;;5966664;24;20187;-85
2022/05/24 12:42:47;;;;;;;3.55;2.53;;;19.70;42.30;;;;;;5960148;24;20160;-85
2022/05/24 12:45:14;;;;;;;2.72;2.50;;;19.70;42.30;;;;;;5960103;24;20615;-85
2022/05/24 12:47:40;;;;;;;2.67;2.45;;;19.80;42.50;;;;;;5961262;24;20190;-85
2022/05/24 12:50:06;;;;;;;2.88;2.60;;;19.80;42.30;;;;;;5936514;24;20147;-85
2022/05/24 12:52:38;;;;;;;2.88;2.60;;;19.70;42.50;;;;;;5936444;24;20533;-85
2022/05/24 12:55:06;;;;;;;2.95;2.65;;;19.70;42.40;;;;;;5960790;24;20158;-85
2022/05/24 12:57:38;;;;;;;2.80;2.60;;;19.80;42.60;;;;;;5960331;24;20710;-85
2022/05/24 13:00:10;;;;;;;3.00;2.70;;;19.70;42.60;;;;;;5938989;24;20587;-84
2022/05/24 13:02:46;;;;;;;3.00;2.70;;;19.80;42.60;;;;;;5983454;23;20240;-85
2022/05/24 13:05:20;;;;;;;2.70;2.35;;;19.80;43.00;;;;;;6031545;23;20148;-85
2022/05/24 13:07:57;;;;;;;3.08;2.78;;;19.80;43.80;;;;;;6074323;23;20141;-85
2022/05/24 13:10:26;;;;;;;2.70;2.50;;;19.80;43.00;;;;;;6028073;23;20308;-84
2022/05/24 13:13:01;;;;;;;3.65;2.80;;;19.70;43.00;;;;;;6075028;23;20148;-86
2022/05/24 13:15:39;;;;;;;2.75;2.42;;;19.80;43.40;;;;;;6026639;23;20152;-85
2022/05/24 13:18:12;;;;;;;3.67;2.55;;;19.70;43.70;;;;;;6183177;23;20624;-84
2022/05/24 13:20:41;;;;;;;2.90;2.60;;;19.70;43.30;;;;;;6170104;23;20159;-84
2022/05/24 13:23:28;;;;;;;3.00;2.70;;;19.70;43.70;;;;;;6223172;23;20134;-84
2022/05/24 13:25:57;;;;;;;2.90;2.63;;;19.80;43.70;;;;;;6203206;23;20126;-85
2022/05/24 13:28:48;;;;;;;3.58;3.28;;;19.90;43.20;;;;;;6199419;23;20561;-85
2022/05/24 13:34:24;;;;;;;3.28;2.97;;;19.80;43.40;;;;;;6202990;23;20161;-88
2022/05/24 13:36:54;;;;;;;3.20;2.90;;;19.70;43.90;;;;;;6198061;23;20180;-86
2022/05/24 13:39:30;;;;;;;4.20;2.80;;;19.70;43.70;;;;;;6173975;23;20207;-86
2022/05/24 13:42:02;;;;;;;3.03;2.72;;;19.70;44.40;;;;;;6133817;23;20310;-86
2022/05/24 13:44:34;;;;;;;2.80;2.60;;;19.70;44.30;;;;;;6109960;23;20182;-86
2022/05/24 13:47:04;;;;;;;3.42;3.13;;;19.70;44.40;;;;;;6133295;23;20167;-85
2022/05/24 13:49:44;;;;;;;3.15;2.85;;;19.80;43.90;;;;;;6131886;23;20136;-85
2022/05/24 13:52:27;;;;;;;2.88;2.67;;;19.80;44.30;;;;;;6109122;23;20155;-85
2022/05/24 13:55:17;;;;;;;2.72;2.45;;;19.70;44.10;;;;;;6107748;23;20597;-86
2022/05/24 13:57:50;;;;;;;3.15;2.85;;;19.80;44.20;;;;;;6133740;23;20246;-84
2022/05/24 14:00:31;;;;;;;2.92;2.63;;;19.80;44.30;;;;;;6112765;23;20155;-86
2022/05/24 14:03:18;;;;;;;3.28;2.97;;;19.90;44.80;;;;;;6159556;23;20210;-86